createdAt,value
2023-04-22T00:01:32.456Z,8.95
2023-04-22T00:03:59.455Z,11.93
2023-04-22T00:06:26.592Z,10.10
2023-04-22T00:08:53.627Z,11.18
2023-04-22T00:11:20.691Z,10.02
2023-04-22T00:13:47.591Z,10.02
2023-04-22T00:16:14.686Z,10.75
2023-04-22T00:18:41.691Z,10.20
2023-04-22T00:21:08.797Z,8.73
2023-04-22T00:23:36.000Z,9.18
2023-04-22T00:26:03.358Z,9.18
2023-04-22T00:28:30.641Z,11.32
2023-04-22T00:30:58.824Z,10.00
2023-04-22T00:33:26.050Z,8.88
2023-04-22T00:35:54.657Z,10.45
2023-04-22T00:38:22.931Z,10.85
2023-04-22T00:40:49.873Z,10.20
2023-04-22T00:43:17.813Z,11.45
2023-04-22T00:45:45.346Z,11.38
2023-04-22T00:48:13.461Z,10.25
2023-04-22T00:50:40.647Z,10.85
2023-04-22T00:53:07.819Z,10.05
2023-04-22T00:55:35.276Z,11.10
2023-04-22T00:58:03.479Z,10.60
2023-04-22T01:00:30.939Z,9.48
2023-04-22T01:02:58.564Z,9.05
2023-04-22T01:05:28.818Z,10.82
2023-04-22T01:07:55.964Z,11.90
2023-04-22T01:10:23.175Z,11.18
2023-04-22T01:12:51.781Z,12.25
2023-04-22T01:15:19.015Z,11.55
2023-04-22T01:17:46.099Z,10.38
2023-04-22T01:20:13.970Z,11.00
2023-04-22T01:22:42.472Z,9.70
2023-04-22T01:25:11.318Z,11.45
2023-04-22T01:27:39.257Z,11.52
2023-04-22T01:30:07.471Z,10.55
2023-04-22T01:32:34.691Z,11.20
2023-04-22T01:35:01.828Z,10.50
2023-04-22T01:37:29.968Z,9.77
2023-04-22T01:39:58.841Z,10.50
2023-04-22T01:42:26.056Z,12.68
2023-04-22T01:44:53.028Z,9.80
2023-04-22T01:47:19.957Z,12.43
2023-04-22T01:49:47.223Z,10.90
2023-04-22T01:52:14.349Z,11.18
2023-04-22T01:54:41.773Z,11.32
2023-04-22T01:57:14.028Z,12.13
2023-04-22T01:59:41.911Z,10.50
2023-04-22T02:02:09.235Z,10.52
2023-04-22T02:04:36.557Z,11.18
2023-04-22T02:07:03.711Z,12.32
2023-04-22T02:09:33.482Z,11.18
2023-04-22T02:12:01.313Z,10.93
2023-04-22T02:14:28.484Z,11.13
2023-04-22T02:16:55.469Z,12.00
2023-04-22T02:19:22.481Z,12.60
2023-04-22T02:21:49.554Z,11.88
2023-04-22T02:24:16.678Z,9.57
2023-04-22T02:26:43.598Z,11.57
2023-04-22T02:29:10.520Z,8.70
2023-04-22T02:31:37.493Z,9.93
2023-04-22T02:34:05.224Z,10.20
2023-04-22T02:36:34.562Z,10.80
2023-04-22T02:39:03.677Z,9.93
2023-04-22T02:41:30.759Z,12.65
2023-04-22T02:43:57.841Z,8.23
2023-04-22T02:46:25.909Z,10.32
2023-04-22T02:48:53.021Z,12.27
2023-04-22T02:51:21.994Z,10.82
2023-04-22T02:53:48.910Z,11.85
2023-04-22T02:56:16.021Z,9.80
2023-04-22T02:58:43.267Z,10.55
2023-04-22T03:01:10.387Z,9.77
2023-04-22T03:03:37.779Z,9.32
2023-04-22T03:06:07.190Z,10.85
2023-04-22T03:08:34.220Z,9.55
2023-04-22T03:11:01.194Z,12.55
2023-04-22T03:13:28.161Z,11.50
2023-04-22T03:15:55.874Z,10.45
2023-04-22T03:18:22.901Z,11.43
2023-04-22T03:20:50.357Z,12.93
2023-04-22T03:23:18.922Z,9.80
2023-04-22T03:25:45.890Z,12.27
2023-04-22T03:28:13.074Z,11.50
2023-04-22T03:30:41.035Z,11.60
2023-04-22T03:33:08.149Z,9.18
2023-04-22T03:35:51.079Z,9.27
2023-04-22T03:38:18.210Z,11.68
2023-04-22T03:40:45.208Z,9.43
2023-04-22T03:43:38.037Z,9.30
2023-04-22T03:46:08.699Z,9.15
2023-04-22T03:48:39.828Z,10.25
2023-04-22T03:51:12.496Z,10.10
2023-04-22T03:53:41.307Z,9.70
2023-04-22T03:56:11.152Z,9.18
2023-04-22T03:58:44.152Z,8.30
2023-04-22T04:01:11.470Z,9.88
2023-04-22T04:03:39.533Z,9.82
2023-04-22T04:06:08.466Z,9.35
2023-04-22T04:08:36.767Z,9.73
2023-04-22T04:11:04.761Z,9.13
2023-04-22T04:13:32.547Z,10.13
2023-04-22T04:18:51.951Z,10.18
2023-04-22T04:21:21.811Z,10.77
2023-04-22T04:23:51.502Z,9.52
2023-04-22T04:26:23.950Z,10.93
2023-04-22T04:28:56.133Z,11.90
2023-04-22T04:31:24.916Z,9.45
2023-04-22T04:33:53.057Z,10.57
2023-04-22T04:36:20.393Z,12.02
2023-04-22T04:38:48.875Z,10.40
2023-04-22T04:41:16.046Z,9.23
2023-04-22T04:43:46.367Z,9.77
2023-04-22T04:46:22.739Z,9.45
2023-04-22T04:48:51.648Z,9.30
2023-04-22T04:51:20.393Z,9.20
2023-04-22T04:53:57.332Z,9.18
2023-04-22T04:56:27.712Z,12.20
2023-04-22T04:58:55.256Z,10.48
2023-04-22T05:01:25.272Z,10.65
2023-04-22T05:03:53.225Z,8.77
2023-04-22T05:06:21.287Z,9.75
2023-04-22T05:09:02.602Z,9.43
2023-04-22T05:11:29.937Z,10.30
2023-04-22T05:13:58.554Z,8.65
2023-04-22T05:16:31.332Z,11.65
2023-04-22T05:18:58.937Z,12.40
2023-04-22T05:21:25.928Z,10.43
2023-04-22T05:23:52.935Z,11.10
2023-04-22T05:26:20.349Z,11.02
2023-04-22T05:28:49.810Z,10.30
2023-04-22T05:31:18.293Z,9.15
2023-04-22T05:33:45.432Z,8.95
2023-04-22T05:36:12.457Z,11.48
2023-04-22T05:38:39.597Z,12.18
2023-04-22T05:41:06.501Z,11.05
2023-04-22T05:43:33.809Z,11.02
2023-04-22T05:46:11.603Z,12.52
2023-04-22T05:48:40.787Z,10.35
2023-04-22T05:51:15.995Z,11.68
2023-04-22T05:53:42.955Z,9.63
2023-04-22T05:56:10.768Z,11.73
2023-04-22T05:58:38.044Z,14.80
2023-04-22T06:01:11.842Z,12.15
2023-04-22T06:03:55.538Z,12.63
2023-04-22T06:06:24.119Z,13.35
2023-04-22T06:08:51.105Z,14.32
2023-04-22T06:11:18.461Z,13.60
2023-04-22T06:13:45.402Z,11.45
2023-04-22T06:16:12.410Z,13.50
2023-04-22T06:18:39.524Z,11.25
2023-04-22T06:21:11.121Z,13.32
2023-04-22T06:23:38.125Z,12.02
2023-04-22T06:26:05.252Z,11.38
2023-04-22T06:28:33.378Z,14.52
2023-04-22T06:31:05.319Z,15.13
2023-04-22T06:33:32.707Z,13.70
2023-04-22T06:36:01.536Z,14.13
2023-04-22T06:38:31.492Z,12.38
2023-04-22T06:41:23.890Z,13.20
2023-04-22T06:43:53.364Z,12.65
2023-04-22T06:46:39.064Z,12.13
2023-04-22T06:49:25.032Z,14.10
2023-04-22T06:52:18.963Z,13.35
2023-04-22T06:54:46.083Z,11.93
2023-04-22T06:57:13.206Z,14.07
2023-04-22T06:59:40.545Z,12.13
2023-04-22T07:02:08.220Z,14.10
2023-04-22T07:04:38.795Z,11.63
2023-04-22T07:07:06.627Z,12.77
2023-04-22T07:09:33.961Z,15.98
2023-04-22T07:12:01.946Z,16.73
2023-04-22T07:14:30.802Z,13.70
2023-04-22T07:16:57.893Z,14.55
2023-04-22T07:19:25.502Z,15.80
2023-04-22T07:21:52.537Z,14.07
2023-04-22T07:24:19.523Z,15.27
2023-04-22T07:26:46.499Z,16.30
2023-04-22T07:29:13.457Z,16.52
2023-04-22T07:31:40.454Z,16.45
2023-04-22T07:34:07.767Z,13.65
2023-04-22T07:36:34.682Z,12.98
2023-04-22T07:39:01.681Z,15.18
2023-04-22T07:41:28.706Z,13.75
2023-04-22T07:43:55.732Z,15.73
2023-04-22T07:46:23.185Z,14.15
2023-04-22T07:48:50.426Z,14.60
2023-04-22T07:51:17.425Z,14.73
2023-04-22T07:53:44.377Z,12.57
2023-04-22T07:56:11.427Z,13.15
2023-04-22T07:58:38.362Z,12.23
2023-04-22T08:01:05.288Z,13.50
2023-04-22T08:03:32.431Z,12.27
2023-04-22T08:05:59.621Z,11.93
2023-04-22T08:08:26.651Z,15.05
2023-04-22T08:10:53.600Z,16.65
2023-04-22T08:13:20.650Z,12.05
2023-04-22T08:15:47.760Z,13.63
2023-04-22T08:18:14.748Z,12.35
2023-04-22T08:20:41.767Z,12.32
2023-04-22T08:23:08.737Z,12.13
2023-04-22T08:25:35.826Z,15.27
2023-04-22T08:28:03.407Z,13.23
2023-04-22T08:30:30.445Z,12.90
2023-04-22T08:32:57.454Z,12.90
2023-04-22T08:35:24.433Z,13.65
2023-04-22T08:37:51.367Z,13.60
2023-04-22T08:40:18.419Z,14.07
2023-04-22T08:42:45.404Z,16.60
2023-04-22T08:45:13.717Z,14.23
2023-04-22T08:47:41.303Z,13.00
2023-04-22T08:50:09.773Z,14.13
2023-04-22T08:52:37.200Z,16.52
2023-04-22T08:55:04.435Z,16.25
2023-04-22T08:57:31.986Z,16.60
2023-04-22T08:59:59.625Z,15.80
2023-04-22T09:02:29.001Z,13.43
2023-04-22T09:04:56.379Z,15.88
2023-04-22T09:07:26.840Z,12.15
2023-04-22T09:09:57.897Z,15.20
2023-04-22T09:12:28.536Z,12.45
2023-04-22T09:14:56.012Z,13.73
2023-04-22T09:17:33.260Z,14.27
2023-04-22T09:20:05.054Z,15.55
2023-04-22T09:22:41.171Z,15.70
2023-04-22T09:25:18.036Z,13.45
2023-04-22T09:27:49.815Z,14.05
2023-04-22T09:30:19.377Z,12.40
2023-04-22T09:33:00.978Z,15.65
2023-04-22T09:35:28.911Z,14.80
2023-04-22T09:37:56.301Z,14.88
2023-04-22T09:40:24.568Z,12.85
2023-04-22T09:42:53.236Z,16.48
2023-04-22T09:45:35.002Z,26.52
2023-04-22T09:48:12.080Z,13.77
2023-04-22T09:50:41.218Z,15.77
2023-04-22T09:53:12.441Z,13.80
2023-04-22T09:55:43.679Z,14.98
2023-04-22T09:58:12.807Z,16.60
2023-04-22T10:01:00.170Z,15.93
2023-04-22T10:03:27.110Z,14.82
2023-04-22T10:05:54.071Z,13.30
2023-04-22T10:08:21.061Z,16.55
2023-04-22T10:10:48.312Z,12.60
2023-04-22T10:13:15.247Z,16.17
2023-04-22T10:15:53.563Z,16.35
2023-04-22T10:18:26.239Z,20.27
2023-04-22T10:20:56.374Z,20.55
2023-04-22T10:23:24.829Z,15.95
2023-04-22T10:25:55.086Z,17.50
2023-04-22T10:28:23.569Z,17.30
2023-04-22T10:30:51.300Z,15.07
2023-04-22T10:33:21.198Z,16.95
2023-04-22T10:36:08.388Z,15.43
2023-04-22T10:38:40.849Z,15.13
2023-04-22T10:41:13.628Z,14.40
2023-04-22T10:43:42.104Z,15.88
2023-04-22T10:46:32.874Z,16.25
2023-04-22T10:49:07.060Z,14.65
2023-04-22T10:51:46.848Z,14.57
2023-04-22T10:54:27.987Z,13.50
2023-04-22T10:57:03.686Z,14.98
2023-04-22T10:59:41.533Z,11.10
2023-04-22T11:02:11.933Z,13.25
2023-04-22T11:04:39.647Z,11.43
2023-04-22T11:07:26.922Z,11.88
2023-04-22T11:10:01.636Z,11.40
2023-04-22T11:12:49.554Z,14.27
2023-04-22T11:15:22.334Z,14.25
2023-04-22T11:17:53.843Z,11.02
2023-04-22T11:20:21.819Z,11.55
2023-04-22T11:22:53.847Z,12.65
2023-04-22T11:25:21.811Z,14.30
2023-04-22T11:27:49.055Z,12.52
2023-04-22T11:30:19.330Z,11.88
2023-04-22T11:32:51.589Z,13.52
2023-04-22T11:35:20.737Z,15.05
2023-04-22T11:37:52.637Z,12.90
2023-04-22T11:40:30.658Z,13.73
2023-04-22T11:43:00.924Z,13.38
2023-04-22T11:45:29.754Z,13.10
2023-04-22T11:47:57.252Z,13.20
2023-04-22T11:50:28.627Z,15.80
2023-04-22T11:52:58.088Z,12.85
2023-04-22T11:55:30.778Z,13.45
2023-04-22T11:57:59.777Z,14.60
2023-04-22T12:00:33.169Z,13.88
2023-04-22T12:03:05.950Z,13.57
2023-04-22T12:05:35.035Z,13.77
2023-04-22T12:08:30.260Z,15.85
2023-04-22T12:10:59.421Z,12.63
2023-04-22T12:13:43.522Z,12.45
2023-04-22T12:16:12.620Z,12.63
2023-04-22T12:18:53.226Z,14.23
2023-04-22T12:21:24.971Z,13.50
2023-04-22T12:23:57.525Z,11.63
2023-04-22T12:26:27.277Z,11.27
2023-04-22T12:28:56.732Z,11.80
2023-04-22T12:31:24.898Z,11.35
2023-04-22T12:33:51.925Z,11.55
2023-04-22T12:36:22.324Z,11.80
2023-04-22T12:38:49.590Z,11.10
2023-04-22T12:41:16.585Z,11.98
2023-04-22T12:43:43.561Z,11.98
2023-04-22T12:46:10.649Z,15.57
2023-04-22T12:48:37.919Z,10.25
2023-04-22T12:51:06.571Z,12.57
2023-04-22T12:53:33.660Z,11.90
2023-04-22T12:56:00.837Z,11.05
2023-04-22T12:58:28.366Z,11.93
2023-04-22T13:00:55.385Z,13.20
2023-04-22T13:03:22.686Z,12.23
2023-04-22T13:05:49.913Z,10.88
2023-04-22T13:08:17.570Z,10.55
2023-04-22T13:10:44.544Z,12.70
2023-04-22T13:13:18.412Z,12.93
2023-04-22T13:15:47.375Z,11.00
2023-04-22T13:18:16.145Z,10.43
2023-04-22T13:20:43.204Z,12.95
2023-04-22T13:23:10.583Z,11.07
2023-04-22T13:25:37.794Z,11.43
2023-04-22T13:28:04.754Z,11.48
2023-04-22T13:30:31.699Z,12.65
2023-04-22T13:32:58.685Z,10.55
2023-04-22T13:35:25.757Z,11.13
2023-04-22T13:37:52.733Z,10.98
2023-04-22T13:40:19.692Z,10.25
2023-04-22T13:42:46.734Z,12.25
2023-04-22T13:45:13.688Z,11.85
2023-04-22T13:47:40.588Z,10.88
2023-04-22T13:50:09.084Z,12.43
2023-04-22T13:52:36.248Z,12.88
2023-04-22T13:55:03.794Z,12.40
2023-04-22T13:57:30.938Z,13.13
2023-04-22T14:00:00.638Z,12.20
2023-04-22T14:02:27.821Z,11.07
2023-04-22T14:04:54.873Z,13.07
2023-04-22T14:07:21.910Z,10.43
2023-04-22T14:09:48.781Z,9.98
2023-04-22T14:12:15.992Z,10.93
2023-04-22T14:14:43.095Z,10.38
2023-04-22T14:17:10.493Z,13.40
2023-04-22T14:19:39.365Z,10.52
2023-04-22T14:22:06.699Z,11.55
2023-04-22T14:24:33.814Z,12.07
2023-04-22T14:27:04.016Z,12.55
2023-04-22T14:29:31.826Z,13.45
2023-04-22T14:31:58.822Z,10.82
2023-04-22T14:34:27.201Z,10.25
2023-04-22T14:36:54.467Z,13.93
2023-04-22T14:39:21.510Z,9.23
2023-04-22T14:41:48.841Z,10.38
2023-04-22T14:44:16.054Z,10.38
2023-04-22T14:46:42.995Z,10.88
2023-04-22T14:49:10.071Z,12.35
2023-04-22T14:51:37.134Z,9.98
2023-04-22T14:54:04.631Z,10.27
2023-04-22T14:56:31.583Z,10.30
2023-04-22T14:58:58.507Z,9.00
2023-04-22T15:01:25.944Z,10.60
2023-04-22T15:03:53.303Z,9.30
2023-04-22T15:06:20.689Z,9.88
2023-04-22T15:08:47.708Z,11.02
2023-04-22T15:11:14.681Z,11.30
2023-04-22T15:13:41.595Z,8.75
2023-04-22T15:16:08.759Z,8.80
2023-04-22T15:18:36.075Z,8.70
2023-04-22T15:21:05.668Z,7.95
2023-04-22T15:23:32.587Z,9.63
2023-04-22T15:25:59.566Z,9.25
2023-04-22T15:28:26.498Z,9.43
2023-04-22T15:30:53.505Z,6.75
2023-04-22T15:33:20.384Z,6.57
2023-04-22T15:35:49.453Z,7.53
2023-04-22T15:38:17.077Z,9.20
2023-04-22T15:40:44.234Z,8.05
2023-04-22T15:43:11.329Z,6.78
2023-04-22T15:45:38.275Z,6.57
2023-04-22T15:48:05.948Z,5.95
2023-04-22T15:50:32.954Z,6.72
2023-04-22T15:52:59.862Z,7.63
2023-04-22T15:55:26.794Z,8.50
2023-04-22T15:57:53.708Z,5.70
2023-04-22T16:00:21.220Z,6.93
2023-04-22T16:02:55.381Z,7.20
2023-04-22T16:05:24.827Z,6.25
2023-04-22T16:07:53.342Z,6.78
2023-04-22T16:10:21.182Z,5.40
2023-04-22T16:12:49.550Z,5.68
2023-04-22T16:15:16.623Z,6.65
2023-04-22T16:17:44.292Z,6.43
2023-04-22T16:20:11.907Z,7.18
2023-04-22T16:22:38.964Z,5.60
2023-04-22T16:25:06.616Z,6.55
2023-04-22T16:27:33.580Z,7.10
2023-04-22T16:30:00.710Z,9.98
2023-04-22T16:32:27.701Z,6.53
2023-04-22T16:34:54.705Z,9.57
2023-04-22T16:37:21.601Z,7.07
2023-04-22T16:39:49.304Z,8.77
2023-04-22T16:42:16.189Z,6.88
2023-04-22T16:44:43.263Z,8.38
2023-04-22T16:47:10.277Z,6.82
2023-04-22T16:49:37.263Z,8.60
2023-04-22T16:52:04.213Z,8.32
2023-04-22T16:54:31.153Z,9.13
2023-04-22T16:56:58.134Z,10.90
2023-04-22T16:59:25.124Z,9.63
2023-04-22T17:01:52.212Z,9.20
2023-04-22T17:04:19.380Z,9.68
2023-04-22T17:06:46.465Z,11.63
2023-04-22T17:09:13.395Z,9.95
2023-04-22T17:11:40.449Z,8.98
2023-04-22T17:14:07.660Z,10.48
2023-04-22T17:16:34.746Z,11.70
2023-04-22T17:19:01.774Z,12.05
2023-04-22T17:21:28.878Z,16.17
2023-04-22T17:23:56.159Z,10.07
2023-04-22T17:26:23.106Z,10.68
2023-04-22T17:28:49.988Z,10.98
2023-04-22T17:31:17.842Z,10.90
2023-04-22T17:33:44.788Z,10.30
2023-04-22T17:36:11.908Z,11.60
2023-04-22T17:38:40.979Z,11.05
2023-04-22T17:41:07.955Z,12.10
2023-04-22T17:43:34.976Z,10.85
2023-04-22T17:46:02.030Z,10.55
2023-04-22T17:48:28.931Z,11.82
2023-04-22T17:50:55.861Z,10.77
2023-04-22T17:53:22.823Z,13.20
2023-04-22T17:55:49.779Z,13.07
2023-04-22T17:58:16.684Z,15.13
2023-04-22T18:00:43.825Z,13.38
2023-04-22T18:03:11.160Z,12.80
2023-04-22T18:05:44.608Z,12.93
2023-04-22T18:08:11.664Z,14.02
2023-04-22T18:10:38.971Z,14.85
2023-04-22T18:13:06.792Z,13.85
2023-04-22T18:15:33.750Z,14.55
2023-04-22T18:18:01.323Z,14.82
2023-04-22T18:20:28.474Z,14.77
2023-04-22T18:22:56.512Z,13.20
2023-04-22T18:25:24.294Z,13.20
2023-04-22T18:27:54.992Z,13.02
2023-04-22T18:30:23.318Z,15.60
2023-04-22T18:32:51.682Z,12.98
2023-04-22T18:35:20.015Z,15.32
2023-04-22T18:37:47.603Z,13.88
2023-04-22T18:40:14.901Z,14.20
2023-04-22T18:42:44.714Z,15.55
2023-04-22T18:45:12.443Z,13.75
2023-04-22T18:47:39.882Z,13.15
2023-04-22T18:50:07.693Z,15.50
2023-04-22T18:52:34.997Z,15.88
2023-04-22T18:55:02.268Z,13.52
2023-04-22T18:57:29.374Z,13.45
2023-04-22T18:59:56.447Z,14.35
2023-04-22T19:02:23.405Z,14.80
2023-04-22T19:04:51.304Z,15.10
2023-04-22T19:07:18.287Z,13.38
2023-04-22T19:09:45.480Z,17.25
2023-04-22T19:12:14.814Z,15.90
2023-04-22T19:14:42.747Z,14.52
2023-04-22T19:17:10.101Z,14.63
2023-04-22T19:19:37.038Z,17.17
2023-04-22T19:22:03.985Z,21.00
2023-04-22T19:24:33.596Z,17.92
2023-04-22T19:27:03.075Z,18.63
2023-04-22T19:29:30.152Z,16.88
2023-04-22T19:31:57.353Z,15.23
2023-04-22T19:34:24.474Z,18.83
2023-04-22T19:36:51.443Z,14.48
2023-04-22T19:39:18.434Z,18.40
2023-04-22T19:41:45.648Z,20.63
2023-04-22T19:44:12.841Z,17.88
2023-04-22T19:46:39.920Z,17.27
2023-04-22T19:49:07.221Z,16.10
2023-04-22T19:51:35.253Z,15.63
2023-04-22T19:54:02.947Z,16.55
2023-04-22T19:56:30.025Z,18.45
2023-04-22T19:58:57.400Z,17.48
2023-04-22T20:01:24.654Z,15.88
2023-04-22T20:03:52.229Z,17.63
2023-04-22T20:06:22.879Z,16.15
2023-04-22T20:08:53.565Z,15.68
2023-04-22T20:11:21.421Z,16.83
2023-04-22T20:13:49.720Z,18.65
2023-04-22T20:16:19.321Z,18.20
2023-04-22T20:18:46.773Z,17.02
2023-04-22T20:21:14.668Z,18.67
2023-04-22T20:23:42.655Z,17.33
2023-04-22T20:26:10.395Z,16.88
2023-04-22T20:28:48.833Z,16.73
2023-04-22T20:31:20.453Z,15.95
2023-04-22T20:33:48.353Z,17.52
2023-04-22T20:36:16.896Z,16.13
2023-04-22T20:38:48.803Z,16.08
2023-04-22T20:41:18.821Z,16.20
2023-04-22T20:43:46.517Z,16.90
2023-04-22T20:46:13.723Z,16.80
2023-04-22T20:48:41.147Z,15.77
2023-04-22T20:51:08.232Z,15.80
2023-04-22T20:53:35.447Z,18.45
2023-04-22T20:56:02.965Z,17.13
2023-04-22T20:58:30.084Z,19.05
2023-04-22T21:00:57.118Z,20.77
2023-04-22T21:03:26.680Z,18.10
2023-04-22T21:05:54.085Z,20.38
2023-04-22T21:08:23.485Z,21.35
2023-04-22T21:10:52.901Z,20.10
2023-04-22T21:13:20.123Z,18.52
2023-04-22T21:16:01.253Z,16.52
2023-04-22T21:18:29.427Z,18.58
2023-04-22T21:20:57.117Z,18.23
2023-04-22T21:23:25.405Z,19.70
2023-04-22T21:25:55.557Z,19.80
2023-04-22T21:28:23.275Z,17.70
2023-04-22T21:30:50.564Z,17.27
2023-04-22T21:33:17.488Z,17.65
2023-04-22T21:35:44.526Z,19.58
2023-04-22T21:38:11.734Z,19.00
2023-04-22T21:40:38.669Z,18.75
2023-04-22T21:43:06.175Z,18.48
2023-04-22T21:45:33.458Z,20.33
2023-04-22T21:48:00.709Z,18.73
2023-04-22T21:50:30.130Z,20.25
2023-04-22T21:52:57.648Z,18.95
2023-04-22T21:55:24.667Z,21.35
2023-04-22T21:57:51.760Z,18.77
2023-04-22T22:00:19.277Z,18.20
2023-04-22T22:02:47.367Z,22.38
2023-04-22T22:05:15.716Z,19.77
2023-04-22T22:07:43.479Z,20.20
2023-04-22T22:10:16.274Z,21.60
2023-04-22T22:12:43.189Z,21.38
2023-04-22T22:15:11.436Z,19.27
2023-04-22T22:17:40.266Z,19.63
2023-04-22T22:20:12.005Z,19.35
2023-04-22T22:22:43.682Z,21.13
2023-04-22T22:25:13.622Z,20.13
2023-04-22T22:27:45.497Z,19.65
2023-04-22T22:30:13.650Z,21.45
2023-04-22T22:32:40.902Z,19.67
2023-04-22T22:35:08.482Z,20.88
2023-04-22T22:37:35.818Z,21.33
2023-04-22T22:40:02.989Z,19.83
2023-04-22T22:42:29.985Z,20.38
2023-04-22T22:44:57.597Z,21.23
2023-04-22T22:47:25.651Z,21.73
2023-04-22T22:49:53.491Z,20.90
2023-04-22T22:52:20.464Z,22.92
2023-04-22T22:54:48.778Z,20.13
2023-04-22T22:57:16.331Z,19.73
2023-04-22T22:59:43.446Z,21.17
2023-04-22T23:02:10.822Z,20.63
2023-04-22T23:04:39.430Z,23.35
2023-04-22T23:07:06.718Z,21.45
2023-04-22T23:09:33.628Z,19.65
2023-04-22T23:12:02.658Z,20.02
2023-04-22T23:14:30.213Z,22.38
2023-04-22T23:16:57.305Z,20.45
2023-04-22T23:19:25.668Z,19.83
2023-04-22T23:21:54.464Z,19.60
2023-04-22T23:24:21.524Z,20.23
2023-04-22T23:26:48.744Z,21.45
2023-04-22T23:29:16.541Z,21.13
2023-04-22T23:31:44.256Z,20.33
2023-04-22T23:34:11.896Z,20.50
2023-04-22T23:36:39.270Z,20.27
2023-04-22T23:39:06.794Z,22.75
2023-04-22T23:41:34.033Z,20.15
2023-04-22T23:44:01.048Z,20.50
2023-04-22T23:46:28.213Z,21.38
2023-04-22T23:48:55.556Z,20.60
2023-04-22T23:51:22.626Z,20.48
2023-04-22T23:53:49.560Z,20.98
2023-04-22T23:56:21.052Z,20.83
2023-04-22T23:58:49.121Z,21.88
